sensor_id;sensor_type;location;lat;lon;timestamp;pressure;altitude;pressure_sealevel;temperature;humidity
72798;BME280;61084;55.816;37.036;2024-01-25T00:00:26;98229.53;;;2.70;69.81
72798;BME280;61084;55.816;37.036;2024-01-25T00:02:52;98225.28;;;2.69;69.42
72798;BME280;61084;55.816;37.036;2024-01-25T00:05:18;98226.13;;;2.69;69.66
72798;BME280;61084;55.816;37.036;2024-01-25T00:07:50;98218.28;;;2.71;69.53
72798;BME280;61084;55.816;37.036;2024-01-25T00:10:17;98214.00;;;2.70;69.48
72798;BME280;61084;55.816;37.036;2024-01-25T00:12:44;98210.63;;;2.68;69.94
72798;BME280;61084;55.816;37.036;2024-01-25T00:15:10;98208.00;;;2.69;69.82
72798;BME280;61084;55.816;37.036;2024-01-25T00:17:37;98199.38;;;2.69;70.14
72798;BME280;61084;55.816;37.036;2024-01-25T00:20:04;98201.97;;;2.69;69.70
72798;BME280;61084;55.816;37.036;2024-01-25T00:22:31;98199.38;;;2.69;69.77
72798;BME280;61084;55.816;37.036;2024-01-25T00:24:58;98198.53;;;2.68;69.48
72798;BME280;61084;55.816;37.036;2024-01-25T00:27:24;98195.09;;;2.68;69.48
72798;BME280;61084;55.816;37.036;2024-01-25T00:29:50;98192.56;;;2.66;69.88
72798;BME280;61084;55.816;37.036;2024-01-25T00:32:16;98193.53;;;2.64;69.92
72798;BME280;61084;55.816;37.036;2024-01-25T00:34:42;98179.88;;;2.60;69.56
72798;BME280;61084;55.816;37.036;2024-01-25T00:37:08;98182.47;;;2.60;69.96
72798;BME280;61084;55.816;37.036;2024-01-25T00:39:36;98181.53;;;2.61;69.70
72798;BME280;61084;55.816;37.036;2024-01-25T00:42:06;98175.41;;;2.64;69.80
72798;BME280;61084;55.816;37.036;2024-01-25T00:44:32;98167.63;;;2.64;69.50
72798;BME280;61084;55.816;37.036;2024-01-25T00:46:58;98175.38;;;2.65;69.47
72798;BME280;61084;55.816;37.036;2024-01-25T00:49:25;98169.19;;;2.68;69.79
72798;BME280;61084;55.816;37.036;2024-01-25T00:51:56;98169.19;;;2.68;69.84
72798;BME280;61084;55.816;37.036;2024-01-25T00:54:24;98161.50;;;2.66;69.92
72798;BME280;61084;55.816;37.036;2024-01-25T00:56:51;98156.22;;;2.68;69.62
72798;BME280;61084;55.816;37.036;2024-01-25T00:59:19;98151.97;;;2.67;69.46
72798;BME280;61084;55.816;37.036;2024-01-25T01:01:49;98146.78;;;2.67;69.63
72798;BME280;61084;55.816;37.036;2024-01-25T01:04:19;98140.88;;;2.63;69.44
72798;BME280;61084;55.816;37.036;2024-01-25T01:06:46;98138.28;;;2.63;69.67
72798;BME280;61084;55.816;37.036;2024-01-25T01:09:13;98133.97;;;2.64;69.88
72798;BME280;61084;55.816;37.036;2024-01-25T01:11:39;98125.22;;;2.66;69.65
72798;BME280;61084;55.816;37.036;2024-01-25T01:14:05;98129.56;;;2.66;69.69
72798;BME280;61084;55.816;37.036;2024-01-25T01:16:31;98121.75;;;2.67;69.99
72798;BME280;61084;55.816;37.036;2024-01-25T01:18:59;98122.56;;;2.68;69.79
72798;BME280;61084;55.816;37.036;2024-01-25T01:21:34;98117.53;;;2.65;69.58
72798;BME280;61084;55.816;37.036;2024-01-25T01:24:01;98120.16;;;2.63;69.60
72798;BME280;61084;55.816;37.036;2024-01-25T01:26:27;98116.75;;;2.63;69.44
72798;BME280;61084;55.816;37.036;2024-01-25T01:28:53;98112.38;;;2.63;69.92
72798;BME280;61084;55.816;37.036;2024-01-25T01:31:19;98114.22;;;2.61;69.95
72798;BME280;61084;55.816;37.036;2024-01-25T01:33:46;98109.88;;;2.62;70.24
72798;BME280;61084;55.816;37.036;2024-01-25T01:36:13;98106.31;;;2.64;70.11
72798;BME280;61084;55.816;37.036;2024-01-25T01:38:39;98093.44;;;2.63;69.85
72798;BME280;61084;55.816;37.036;2024-01-25T01:41:05;98099.31;;;2.66;69.70
72798;BME280;61084;55.816;37.036;2024-01-25T01:43:31;98099.31;;;2.66;69.67
72798;BME280;61084;55.816;37.036;2024-01-25T01:46:07;98097.50;;;2.68;69.84
72798;BME280;61084;55.816;37.036;2024-01-25T01:48:35;98097.59;;;2.67;69.52
72798;BME280;61084;55.816;37.036;2024-01-25T01:51:01;98102.94;;;2.62;69.94
72798;BME280;61084;55.816;37.036;2024-01-25T01:53:27;98093.56;;;2.60;69.85
72798;BME280;61084;55.816;37.036;2024-01-25T01:55:53;98096.22;;;2.58;69.91
72798;BME280;61084;55.816;37.036;2024-01-25T01:58:20;98080.03;;;2.53;69.69
72798;BME280;61084;55.816;37.036;2024-01-25T02:00:48;98081.78;;;2.53;69.82
72798;BME280;61084;55.816;37.036;2024-01-25T02:03:14;98082.69;;;2.52;69.58
72798;BME280;61084;55.816;37.036;2024-01-25T02:05:41;98083.66;;;2.49;70.05
72798;BME280;61084;55.816;37.036;2024-01-25T02:08:07;98085.31;;;2.50;70.11
72798;BME280;61084;55.816;37.036;2024-01-25T02:10:34;98082.69;;;2.52;69.80
72798;BME280;61084;55.816;37.036;2024-01-25T02:13:00;98075.19;;;2.46;69.77
72798;BME280;61084;55.816;37.036;2024-01-25T02:15:26;98078.56;;;2.48;70.04
72798;BME280;61084;55.816;37.036;2024-01-25T02:17:52;98079.25;;;2.51;69.67
72798;BME280;61084;55.816;37.036;2024-01-25T02:20:18;98069.84;;;2.49;70.25
72798;BME280;61084;55.816;37.036;2024-01-25T02:22:44;98074.38;;;2.44;69.93
72798;BME280;61084;55.816;37.036;2024-01-25T02:25:10;98074.34;;;2.45;69.53
72798;BME280;61084;55.816;37.036;2024-01-25T02:27:36;98073.41;;;2.46;70.15
72798;BME280;61084;55.816;37.036;2024-01-25T02:30:05;98077.78;;;2.46;69.80
72798;BME280;61084;55.816;37.036;2024-01-25T02:32:32;98073.38;;;2.48;69.93
72798;BME280;61084;55.816;37.036;2024-01-25T02:34:58;98066.50;;;2.47;69.91
72798;BME280;61084;55.816;37.036;2024-01-25T02:37:24;98067.41;;;2.46;69.77
72798;BME280;61084;55.816;37.036;2024-01-25T02:39:51;98083.84;;;2.45;69.99
72798;BME280;61084;55.816;37.036;2024-01-25T02:42:17;98072.91;;;2.38;70.19
72798;BME280;61084;55.816;37.036;2024-01-25T02:44:43;98080.59;;;2.40;69.97
72798;BME280;61084;55.816;37.036;2024-01-25T02:47:09;98079.63;;;2.42;70.14
72798;BME280;61084;55.816;37.036;2024-01-25T02:49:35;98076.16;;;2.43;70.18
72798;BME280;61084;55.816;37.036;2024-01-25T02:52:02;98073.59;;;2.42;70.21
72798;BME280;61084;55.816;37.036;2024-01-25T02:54:28;98074.38;;;2.44;69.95
72798;BME280;61084;55.816;37.036;2024-01-25T02:56:54;98067.53;;;2.43;70.29
72798;BME280;61084;55.816;37.036;2024-01-25T02:59:20;98072.78;;;2.41;70.34
72798;BME280;61084;55.816;37.036;2024-01-25T03:01:46;98071.88;;;2.42;70.19
72798;BME280;61084;55.816;37.036;2024-01-25T03:04:12;98070.97;;;2.43;70.30
72798;BME280;61084;55.816;37.036;2024-01-25T03:06:38;98064.16;;;2.41;70.40
72798;BME280;61084;55.816;37.036;2024-01-25T03:09:04;98071.16;;;2.39;70.27
72798;BME280;61084;55.816;37.036;2024-01-25T03:11:33;98062.53;;;2.38;70.22
72798;BME280;61084;55.816;37.036;2024-01-25T03:13:59;98055.16;;;2.29;70.18
72798;BME280;61084;55.816;37.036;2024-01-25T03:16:25;98061.25;;;2.28;70.13
72798;BME280;61084;55.816;37.036;2024-01-25T03:18:51;98059.44;;;2.30;70.05
72798;BME280;61084;55.816;37.036;2024-01-25T03:21:17;98058.53;;;2.31;70.54
72798;BME280;61084;55.816;37.036;2024-01-25T03:23:43;98061.25;;;2.28;70.26
72798;BME280;61084;55.816;37.036;2024-01-25T03:26:09;98063.97;;;2.25;70.07
72798;BME280;61084;55.816;37.036;2024-01-25T03:28:35;98059.81;;;2.21;70.45
72798;BME280;61084;55.816;37.036;2024-01-25T03:31:01;98058.84;;;2.23;70.29
72798;BME280;61084;55.816;37.036;2024-01-25T03:33:27;98062.28;;;2.24;70.01
72798;BME280;61084;55.816;37.036;2024-01-25T03:35:54;98058.13;;;2.20;70.22
72798;BME280;61084;55.816;37.036;2024-01-25T03:38:20;98054.91;;;2.15;70.40
72798;BME280;61084;55.816;37.036;2024-01-25T03:40:46;98050.63;;;2.14;70.28
72798;BME280;61084;55.816;37.036;2024-01-25T03:43:13;98051.56;;;2.11;70.18
72798;BME280;61084;55.816;37.036;2024-01-25T03:45:39;98047.25;;;2.12;70.74
72798;BME280;61084;55.816;37.036;2024-01-25T03:48:05;98049.91;;;2.10;70.36
72798;BME280;61084;55.816;37.036;2024-01-25T03:50:31;98042.84;;;2.14;70.61
72798;BME280;61084;55.816;37.036;2024-01-25T03:52:57;98054.75;;;2.18;70.47
72798;BME280;61084;55.816;37.036;2024-01-25T03:55:22;98042.75;;;2.17;70.21
72798;BME280;61084;55.816;37.036;2024-01-25T03:57:48;98041.00;;;2.17;70.40
72798;BME280;61084;55.816;37.036;2024-01-25T04:00:14;98033.28;;;2.16;70.41
72798;BME280;61084;55.816;37.036;2024-01-25T04:02:40;98035.81;;;2.17;70.58
72798;BME280;61084;55.816;37.036;2024-01-25T04:05:06;98033.34;;;2.14;70.64
72798;BME280;61084;55.816;37.036;2024-01-25T04:07:33;98025.59;;;2.14;70.55
72798;BME280;61084;55.816;37.036;2024-01-25T04:09:59;98027.31;;;2.14;70.42
72798;BME280;61084;55.816;37.036;2024-01-25T04:12:25;98025.78;;;2.10;70.21
72798;BME280;61084;55.816;37.036;2024-01-25T04:14:50;98026.53;;;2.12;70.56
72798;BME280;61084;55.816;37.036;2024-01-25T04:17:16;98027.47;;;2.11;69.96
72798;BME280;61084;55.816;37.036;2024-01-25T04:19:42;98033.47;;;2.11;70.22
72798;BME280;61084;55.816;37.036;2024-01-25T04:22:08;98027.84;;;2.02;70.50
72798;BME280;61084;55.816;37.036;2024-01-25T04:24:34;98037.28;;;2.03;70.34
72798;BME280;61084;55.816;37.036;2024-01-25T04:27:00;98024.34;;;2.03;70.46
72798;BME280;61084;55.816;37.036;2024-01-25T04:29:26;98026.91;;;2.03;70.49
72798;BME280;61084;55.816;37.036;2024-01-25T04:31:52;98020.19;;;1.99;70.62
72798;BME280;61084;55.816;37.036;2024-01-25T04:34:17;98025.19;;;2.03;70.60
72798;BME280;61084;55.816;37.036;2024-01-25T04:36:44;98017.50;;;2.02;70.39
72798;BME280;61084;55.816;37.036;2024-01-25T04:39:10;98028.53;;;2.05;70.41
72798;BME280;61084;55.816;37.036;2024-01-25T04:41:36;98032.88;;;2.05;70.35
72798;BME280;61084;55.816;37.036;2024-01-25T04:44:02;98033.91;;;2.01;70.27
72798;BME280;61084;55.816;37.036;2024-01-25T04:46:29;98027.09;;;1.98;70.35
72798;BME280;61084;55.816;37.036;2024-01-25T04:48:54;98021.13;;;1.98;70.07
72798;BME280;61084;55.816;37.036;2024-01-25T04:51:20;98014.31;;;1.95;70.09
72798;BME280;61084;55.816;37.036;2024-01-25T04:53:46;98018.56;;;1.96;70.23
72798;BME280;61084;55.816;37.036;2024-01-25T04:56:12;98020.31;;;1.96;70.17
72798;BME280;61084;55.816;37.036;2024-01-25T04:58:38;98014.34;;;1.94;70.26
72798;BME280;61084;55.816;37.036;2024-01-25T05:01:04;98023.81;;;1.95;70.37
72798;BME280;61084;55.816;37.036;2024-01-25T05:03:33;98011.84;;;1.92;70.10
72798;BME280;61084;55.816;37.036;2024-01-25T05:05:59;98017.13;;;1.89;70.00
72798;BME280;61084;55.816;37.036;2024-01-25T05:08:26;98013.84;;;1.86;70.01
72798;BME280;61084;55.816;37.036;2024-01-25T05:10:52;98008.66;;;1.86;70.44
72798;BME280;61084;55.816;37.036;2024-01-25T05:13:18;98021.53;;;1.87;70.16
72798;BME280;61084;55.816;37.036;2024-01-25T05:15:44;98020.56;;;1.90;70.10
72798;BME280;61084;55.816;37.036;2024-01-25T05:18:10;98021.34;;;1.92;70.19
72798;BME280;61084;55.816;37.036;2024-01-25T05:20:36;98017.00;;;1.92;70.43
72798;BME280;61084;55.816;37.036;2024-01-25T05:23:04;98024.69;;;1.94;70.46
72798;BME280;61084;55.816;37.036;2024-01-25T05:25:30;98014.44;;;1.92;70.36
72798;BME280;61084;55.816;37.036;2024-01-25T05:27:56;98022.13;;;1.94;70.35
72798;BME280;61084;55.816;37.036;2024-01-25T05:30:24;98028.97;;;1.95;70.27
72798;BME280;61084;55.816;37.036;2024-01-25T05:32:50;98019.53;;;1.94;70.20
72798;BME280;61084;55.816;37.036;2024-01-25T05:35:16;98016.22;;;1.90;70.26
72798;BME280;61084;55.816;37.036;2024-01-25T05:37:43;98021.47;;;1.89;70.27
72798;BME280;61084;55.816;37.036;2024-01-25T05:40:09;98026.75;;;1.86;70.36
72798;BME280;61084;55.816;37.036;2024-01-25T05:42:35;98032.84;;;1.85;69.93
72798;BME280;61084;55.816;37.036;2024-01-25T05:45:02;98025.09;;;1.85;70.17
72798;BME280;61084;55.816;37.036;2024-01-25T05:47:32;98024.25;;;1.84;70.17
72798;BME280;61084;55.816;37.036;2024-01-25T05:49:58;98018.13;;;1.87;69.90
72798;BME280;61084;55.816;37.036;2024-01-25T05:52:25;98024.38;;;1.81;69.75
72798;BME280;61084;55.816;37.036;2024-01-25T05:54:51;98032.38;;;1.75;69.75
72798;BME280;61084;55.816;37.036;2024-01-25T05:57:17;98029.78;;;1.75;69.80
72798;BME280;61084;55.816;37.036;2024-01-25T05:59:44;98035.84;;;1.74;69.99
72798;BME280;61084;55.816;37.036;2024-01-25T06:02:10;98014.28;;;1.75;69.79
72798;BME280;61084;55.816;37.036;2024-01-25T06:04:36;98023.69;;;1.76;69.87
72798;BME280;61084;55.816;37.036;2024-01-25T06:07:03;98023.69;;;1.76;69.80
72798;BME280;61084;55.816;37.036;2024-01-25T06:09:29;98022.81;;;1.77;70.12
72798;BME280;61084;55.816;37.036;2024-01-25T06:11:55;98025.47;;;1.76;70.21
72798;BME280;61084;55.816;37.036;2024-01-25T06:14:21;98018.41;;;1.79;70.19
72798;BME280;61084;55.816;37.036;2024-01-25T06:16:47;98014.88;;;1.82;69.69
72798;BME280;61084;55.816;37.036;2024-01-25T06:19:13;98018.31;;;1.82;70.09
72798;BME280;61084;55.816;37.036;2024-01-25T06:21:39;98019.13;;;1.83;69.72
72798;BME280;61084;55.816;37.036;2024-01-25T06:24:05;98026.94;;;1.81;69.76
72798;BME280;61084;55.816;37.036;2024-01-25T06:26:31;98021.94;;;1.77;70.13
72798;BME280;61084;55.816;37.036;2024-01-25T06:28:57;98022.72;;;1.79;69.97
72798;BME280;61084;55.816;37.036;2024-01-25T06:31:24;98022.72;;;1.79;69.79
72798;BME280;61084;55.816;37.036;2024-01-25T06:33:50;98017.56;;;1.79;70.11
72798;BME280;61084;55.816;37.036;2024-01-25T06:36:16;98021.19;;;1.75;70.10
72798;BME280;61084;55.816;37.036;2024-01-25T06:38:42;98010.22;;;1.68;69.71
72798;BME280;61084;55.816;37.036;2024-01-25T06:41:09;98018.00;;;1.68;69.89
72798;BME280;61084;55.816;37.036;2024-01-25T06:43:35;98020.41;;;1.73;69.59
72798;BME280;61084;55.816;37.036;2024-01-25T06:46:00;98025.56;;;1.73;69.67
72798;BME280;61084;55.816;37.036;2024-01-25T06:48:27;98022.03;;;1.75;69.74
72798;BME280;61084;55.816;37.036;2024-01-25T06:50:53;98027.97;;;1.77;69.68
72798;BME280;61084;55.816;37.036;2024-01-25T06:53:20;98027.13;;;1.77;69.63
72798;BME280;61084;55.816;37.036;2024-01-25T06:55:46;98034.88;;;1.77;69.53
72798;BME280;61084;55.816;37.036;2024-01-25T06:58:12;98028.81;;;1.78;69.86
72798;BME280;61084;55.816;37.036;2024-01-25T07:00:39;98022.88;;;1.76;69.48
72798;BME280;61084;55.816;37.036;2024-01-25T07:03:05;98028.09;;;1.74;69.53
72798;BME280;61084;55.816;37.036;2024-01-25T07:05:31;98028.16;;;1.73;69.86
72798;BME280;61084;55.816;37.036;2024-01-25T07:07:59;98029.13;;;1.70;69.62
72798;BME280;61084;55.816;37.036;2024-01-25T07:10:25;98021.50;;;1.67;69.90
72798;BME280;61084;55.816;37.036;2024-01-25T07:12:52;98021.31;;;1.72;69.76
72798;BME280;61084;55.816;37.036;2024-01-25T07:15:20;98020.34;;;1.74;69.62
72798;BME280;61084;55.816;37.036;2024-01-25T07:17:46;98025.47;;;1.76;69.66
72798;BME280;61084;55.816;37.036;2024-01-25T07:20:12;98025.41;;;1.77;69.50
72798;BME280;61084;55.816;37.036;2024-01-25T07:22:39;98021.84;;;1.80;69.39
72798;BME280;61084;55.816;37.036;2024-01-25T07:25:05;98015.94;;;1.76;69.61
72798;BME280;61084;55.816;37.036;2024-01-25T07:27:32;98022.72;;;1.79;69.22
72798;BME280;61084;55.816;37.036;2024-01-25T07:29:58;98022.56;;;1.83;69.33
72798;BME280;61084;55.816;37.036;2024-01-25T07:32:23;98019.13;;;1.83;69.34
72798;BME280;61084;55.816;37.036;2024-01-25T07:34:50;98023.47;;;1.82;68.97
72798;BME280;61084;55.816;37.036;2024-01-25T07:37:16;98023.41;;;1.84;69.45
72798;BME280;61084;55.816;37.036;2024-01-25T07:39:44;98014.69;;;1.86;69.02
72798;BME280;61084;55.816;37.036;2024-01-25T07:42:11;98013.75;;;1.87;68.97
72798;BME280;61084;55.816;37.036;2024-01-25T07:44:38;98014.59;;;1.88;68.82
72798;BME280;61084;55.816;37.036;2024-01-25T07:47:04;98021.47;;;1.89;69.36
72798;BME280;61084;55.816;37.036;2024-01-25T07:49:30;98019.72;;;1.89;69.25
72798;BME280;61084;55.816;37.036;2024-01-25T07:51:56;98026.47;;;1.93;68.72
72798;BME280;61084;55.816;37.036;2024-01-25T07:54:22;98024.59;;;1.97;69.12
72798;BME280;61084;55.816;37.036;2024-01-25T07:56:48;98022.06;;;1.95;68.77
72798;BME280;61084;55.816;37.036;2024-01-25T07:59:14;98017.88;;;1.93;68.93
72798;BME280;61084;55.816;37.036;2024-01-25T08:01:40;98020.38;;;1.94;68.90
72798;BME280;61084;55.816;37.036;2024-01-25T08:04:06;98027.34;;;1.92;68.32
72798;BME280;61084;55.816;37.036;2024-01-25T08:06:32;98016.16;;;1.92;68.44
72798;BME280;61084;55.816;37.036;2024-01-25T08:08:58;98016.22;;;1.90;68.79
72798;BME280;61084;55.816;37.036;2024-01-25T08:11:24;98017.97;;;1.90;68.29
72798;BME280;61084;55.816;37.036;2024-01-25T08:13:50;98018.03;;;1.88;68.34
72798;BME280;61084;55.816;37.036;2024-01-25T08:16:16;98029.28;;;1.87;68.68
72798;BME280;61084;55.816;37.036;2024-01-25T08:18:47;98017.53;;;1.80;68.39
72798;BME280;61084;55.816;37.036;2024-01-25T08:21:13;98032.00;;;1.84;68.71
72798;BME280;61084;55.816;37.036;2024-01-25T08:23:39;98030.38;;;1.82;68.61
72798;BME280;61084;55.816;37.036;2024-01-25T08:26:06;98023.59;;;1.79;68.72
72798;BME280;61084;55.816;37.036;2024-01-25T08:28:35;98024.28;;;1.83;68.56
72798;BME280;61084;55.816;37.036;2024-01-25T08:31:02;98022.56;;;1.83;68.30
72798;BME280;61084;55.816;37.036;2024-01-25T08:33:28;98016.66;;;1.80;68.64
72798;BME280;61084;55.816;37.036;2024-01-25T08:35:57;98022.63;;;1.82;68.31
72798;BME280;61084;55.816;37.036;2024-01-25T08:38:23;98020.75;;;1.85;68.72
72798;BME280;61084;55.816;37.036;2024-01-25T08:40:49;98024.97;;;1.88;68.36
72798;BME280;61084;55.816;37.036;2024-01-25T08:43:14;98024.88;;;1.89;68.26
72798;BME280;61084;55.816;37.036;2024-01-25T08:45:40;98024.00;;;1.90;68.26
72798;BME280;61084;55.816;37.036;2024-01-25T08:48:06;98020.44;;;1.93;68.42
72798;BME280;61084;55.816;37.036;2024-01-25T08:50:35;98034.16;;;1.95;68.49
72798;BME280;61084;55.816;37.036;2024-01-25T08:53:02;98028.22;;;1.93;68.43
72798;BME280;61084;55.816;37.036;2024-01-25T08:55:28;98029.84;;;1.95;68.00
72798;BME280;61084;55.816;37.036;2024-01-25T08:57:54;98032.34;;;1.97;68.38
72798;BME280;61084;55.816;37.036;2024-01-25T09:00:20;98034.75;;;2.01;68.17
72798;BME280;61084;55.816;37.036;2024-01-25T09:02:46;98029.50;;;2.03;67.86
72798;BME280;61084;55.816;37.036;2024-01-25T09:05:12;98027.78;;;2.03;67.98
72798;BME280;61084;55.816;37.036;2024-01-25T09:07:38;98023.75;;;1.96;67.62
72798;BME280;61084;55.816;37.036;2024-01-25T09:10:04;98025.47;;;1.96;67.91
72798;BME280;61084;55.816;37.036;2024-01-25T09:12:30;98023.03;;;1.93;68.13
72798;BME280;61084;55.816;37.036;2024-01-25T09:14:57;98022.97;;;1.94;67.82
72798;BME280;61084;55.816;37.036;2024-01-25T09:17:23;98017.72;;;1.96;68.00
72798;BME280;61084;55.816;37.036;2024-01-25T09:19:49;98019.41;;;1.97;67.72
72798;BME280;61084;55.816;37.036;2024-01-25T09:22:15;98020.31;;;1.96;67.89
72798;BME280;61084;55.816;37.036;2024-01-25T09:24:43;98017.72;;;1.96;67.69
72798;BME280;61084;55.816;37.036;2024-01-25T09:27:09;98018.53;;;1.98;68.20
72798;BME280;61084;55.816;37.036;2024-01-25T09:29:36;98019.31;;;2.00;68.14
72798;BME280;61084;55.816;37.036;2024-01-25T09:32:05;98024.53;;;1.98;68.31
72798;BME280;61084;55.816;37.036;2024-01-25T09:57:54;98005.16;;;1.45;68.87
72798;BME280;61084;55.816;37.036;2024-01-25T10:00:23;98007.38;;;1.54;68.73
72798;BME280;61084;55.816;37.036;2024-01-25T10:02:50;98002.81;;;1.61;68.90
72798;BME280;61084;55.816;37.036;2024-01-25T10:05:17;97997.38;;;1.67;68.52
72798;BME280;61084;55.816;37.036;2024-01-25T10:07:45;98005.81;;;1.72;68.61
72798;BME280;61084;55.816;37.036;2024-01-25T10:10:13;98004.78;;;1.76;68.47
72798;BME280;61084;55.816;37.036;2024-01-25T10:12:40;97997.81;;;1.76;68.70
72798;BME280;61084;55.816;37.036;2024-01-25T10:15:06;98002.03;;;1.79;68.68
72798;BME280;61084;55.816;37.036;2024-01-25T10:17:33;98001.00;;;1.83;68.62
72798;BME280;61084;55.816;37.036;2024-01-25T10:19:59;97998.31;;;1.86;68.23
72798;BME280;61084;55.816;37.036;2024-01-25T10:22:25;97998.38;;;1.84;68.28
72798;BME280;61084;55.816;37.036;2024-01-25T10:24:51;97997.47;;;1.85;68.33
72798;BME280;61084;55.816;37.036;2024-01-25T10:27:19;98000.00;;;1.87;68.04
72798;BME280;61084;55.816;37.036;2024-01-25T10:29:45;97998.97;;;1.91;68.25
72798;BME280;61084;55.816;37.036;2024-01-25T10:32:12;97996.44;;;1.89;68.21
72798;BME280;61084;55.816;37.036;2024-01-25T10:34:38;97999.59;;;1.96;68.31
72798;BME280;61084;55.816;37.036;2024-01-25T10:37:08;98002.19;;;1.96;68.37
72798;BME280;61084;55.816;37.036;2024-01-25T10:39:34;98002.09;;;1.99;67.87
72798;BME280;61084;55.816;37.036;2024-01-25T10:42:01;98009.72;;;2.02;67.82
72798;BME280;61084;55.816;37.036;2024-01-25T10:44:27;98010.63;;;2.01;67.78
72798;BME280;61084;55.816;37.036;2024-01-25T10:46:53;98008.94;;;2.00;68.11
72798;BME280;61084;55.816;37.036;2024-01-25T10:49:20;98006.22;;;2.03;68.18
72798;BME280;61084;55.816;37.036;2024-01-25T10:51:47;97996.66;;;2.05;68.14
72798;BME280;61084;55.816;37.036;2024-01-25T10:54:14;98004.22;;;2.09;68.10
72798;BME280;61084;55.816;37.036;2024-01-25T10:56:41;98002.56;;;2.08;68.09
72798;BME280;61084;55.816;37.036;2024-01-25T10:59:08;98008.44;;;2.12;68.31
72798;BME280;61084;55.816;37.036;2024-01-25T11:01:34;98012.53;;;2.17;68.35
72798;BME280;61084;55.816;37.036;2024-01-25T11:04:00;98009.78;;;2.20;68.38
72798;BME280;61084;55.816;37.036;2024-01-25T11:06:27;98008.06;;;2.21;68.31
72798;BME280;61084;55.816;37.036;2024-01-25T11:09:07;98004.53;;;2.22;67.86
72798;BME280;61084;55.816;37.036;2024-01-25T11:11:35;98013.94;;;2.24;68.09
72798;BME280;61084;55.816;37.036;2024-01-25T11:14:02;98017.44;;;2.23;68.33
72798;BME280;61084;55.816;37.036;2024-01-25T11:16:30;98007.09;;;2.23;68.43
72798;BME280;61084;55.816;37.036;2024-01-25T11:19:00;98013.50;;;2.15;68.25
72798;BME280;61084;55.816;37.036;2024-01-25T11:21:46;98018.09;;;2.08;68.36
72798;BME280;61084;55.816;37.036;2024-01-25T11:24:14;98011.78;;;2.14;68.25
72798;BME280;61084;55.816;37.036;2024-01-25T11:26:43;98009.09;;;2.17;68.59
72798;BME280;61084;55.816;37.036;2024-01-25T11:29:10;98015.03;;;2.19;68.11
72798;BME280;61084;55.816;37.036;2024-01-25T11:31:40;98023.00;;;2.14;68.17
72798;BME280;61084;55.816;37.036;2024-01-25T11:34:06;98008.34;;;2.13;68.19
72798;BME280;61084;55.816;37.036;2024-01-25T11:36:32;98021.25;;;2.15;68.59
72798;BME280;61084;55.816;37.036;2024-01-25T11:38:58;98028.16;;;2.14;68.46
72798;BME280;61084;55.816;37.036;2024-01-25T11:41:24;98030.06;;;2.11;68.55
72798;BME280;61084;55.816;37.036;2024-01-25T11:43:50;98022.28;;;2.11;68.44
72798;BME280;61084;55.816;37.036;2024-01-25T11:46:16;98025.66;;;2.13;68.48
72798;BME280;61084;55.816;37.036;2024-01-25T11:48:43;98025.66;;;2.13;68.09
72798;BME280;61084;55.816;37.036;2024-01-25T11:51:10;98027.50;;;2.09;68.32
72798;BME280;61084;55.816;37.036;2024-01-25T11:53:39;98028.47;;;2.07;68.48
72798;BME280;61084;55.816;37.036;2024-01-25T11:56:08;98025.00;;;2.08;68.48
72798;BME280;61084;55.816;37.036;2024-01-25T11:58:36;98028.53;;;2.05;68.49
72798;BME280;61084;55.816;37.036;2024-01-25T12:01:03;98025.97;;;2.05;68.39
72798;BME280;61084;55.816;37.036;2024-01-25T12:03:35;98034.75;;;2.01;68.49
72798;BME280;61084;55.816;37.036;2024-01-25T12:06:21;98033.19;;;1.97;68.63
72798;BME280;61084;55.816;37.036;2024-01-25T12:08:47;98021.94;;;1.98;68.55
72798;BME280;61084;55.816;37.036;2024-01-25T12:11:14;98027.88;;;2.00;68.67
72798;BME280;61084;55.816;37.036;2024-01-25T12:13:42;98034.63;;;2.04;68.51
72798;BME280;61084;55.816;37.036;2024-01-25T12:16:09;98035.47;;;2.05;68.23
72798;BME280;61084;55.816;37.036;2024-01-25T12:18:37;98031.31;;;2.01;68.30
72798;BME280;61084;55.816;37.036;2024-01-25T12:21:03;98029.75;;;1.97;68.29
72798;BME280;61084;55.816;37.036;2024-01-25T12:23:39;98034.94;;;1.97;68.47
72798;BME280;61084;55.816;37.036;2024-01-25T12:26:10;98034.88;;;1.98;68.52
72798;BME280;61084;55.816;37.036;2024-01-25T12:28:37;98040.78;;;2.02;68.82
72798;BME280;61084;55.816;37.036;2024-01-25T12:31:04;98037.41;;;2.00;68.81
72798;BME280;61084;55.816;37.036;2024-01-25T12:33:32;98037.59;;;1.95;68.67
72798;BME280;61084;55.816;37.036;2024-01-25T12:35:58;98037.59;;;1.95;68.83
72798;BME280;61084;55.816;37.036;2024-01-25T12:38:25;98041.06;;;1.94;68.71
72798;BME280;61084;55.816;37.036;2024-01-25T12:40:52;98030.88;;;1.91;68.88
72798;BME280;61084;55.816;37.036;2024-01-25T12:43:19;98043.59;;;1.96;68.98
72798;BME280;61084;55.816;37.036;2024-01-25T12:45:47;98042.88;;;1.92;68.52
72798;BME280;61084;55.816;37.036;2024-01-25T12:48:14;98042.97;;;1.91;68.61
72798;BME280;61084;55.816;37.036;2024-01-25T12:50:41;98043.91;;;1.88;68.91
72798;BME280;61084;55.816;37.036;2024-01-25T12:53:07;98046.50;;;1.88;69.07
72798;BME280;61084;55.816;37.036;2024-01-25T12:55:35;98051.56;;;1.91;69.01
72798;BME280;61084;55.816;37.036;2024-01-25T12:58:03;98043.00;;;1.89;69.10
72798;BME280;61084;55.816;37.036;2024-01-25T13:00:29;98046.56;;;1.87;69.39
72798;BME280;61084;55.816;37.036;2024-01-25T13:02:55;98049.19;;;1.85;69.02
72798;BME280;61084;55.816;37.036;2024-01-25T13:05:22;98055.22;;;1.86;69.25
72798;BME280;61084;55.816;37.036;2024-01-25T13:07:49;98053.59;;;1.83;69.65
72798;BME280;61084;55.816;37.036;2024-01-25T13:10:15;98051.78;;;1.85;69.27
72798;BME280;61084;55.816;37.036;2024-01-25T13:12:41;98060.50;;;1.83;69.70
72798;BME280;61084;55.816;37.036;2024-01-25T13:15:08;98047.03;;;1.75;69.58
72798;BME280;61084;55.816;37.036;2024-01-25T13:17:34;98055.72;;;1.74;69.75
72798;BME280;61084;55.816;37.036;2024-01-25T13:20:04;98065.22;;;1.73;69.42